Accedi per prenotare

Caricamento...

Situazione Metar e Taf aeroporto Pisa - Effemeridi Aeroporto Lucca

[Source: ADDS]
METAR
LIRP 070915Z 10017KT CAVOK 26/15 Q1011 NOSIG =
LIRP 070500Z 0706/0806 14005KT 9999 FEW040 BECMG 0707/0709 08015G25KT BECMG 0720/0722 10005KT
TAF
LIRP 070500Z 0706/0806 14005KT 9999 FEW040 BECMG 0707/0709 08015G25KT BECMG 0720/0722 10005KT =
SR / SS: 03:48 / 19:01 UTC (Effemeridi LIQL 2020-07-07)